createdAt,value
2023-02-17T00:01:12.010Z,5.13
2023-02-17T00:03:40.393Z,4.63
2023-02-17T00:06:09.134Z,4.57
2023-02-17T00:08:39.166Z,5.35
2023-02-17T00:11:08.220Z,4.60
2023-02-17T00:13:36.544Z,4.53
2023-02-17T00:16:09.072Z,4.47
2023-02-17T00:18:37.875Z,4.68
2023-02-17T00:21:18.496Z,4.45
2023-02-17T00:23:49.492Z,4.75
2023-02-17T00:26:19.747Z,4.82
2023-02-17T00:28:48.942Z,4.47
2023-02-17T00:31:19.550Z,4.45
2023-02-17T00:33:48.306Z,5.03
2023-02-17T00:36:18.702Z,4.35
2023-02-17T00:38:49.106Z,4.25
2023-02-17T00:41:17.726Z,4.85
2023-02-17T00:43:46.272Z,4.90
2023-02-17T00:46:15.632Z,4.82
2023-02-17T00:48:44.151Z,4.40
2023-02-17T00:51:14.283Z,4.00
2023-02-17T00:53:42.780Z,4.82
2023-02-17T00:56:13.093Z,4.40
2023-02-17T00:58:42.355Z,4.32
2023-02-17T01:01:11.609Z,4.82
2023-02-17T01:03:42.221Z,4.47
2023-02-17T01:06:15.975Z,5.07
2023-02-17T01:08:44.259Z,4.55
2023-02-17T01:11:19.642Z,4.07
2023-02-17T01:13:48.116Z,4.18
2023-02-17T01:16:21.484Z,4.60
2023-02-17T01:18:50.116Z,4.75
2023-02-17T01:21:21.242Z,4.32
2023-02-17T01:23:50.209Z,4.50
2023-02-17T01:26:22.018Z,4.28
2023-02-17T01:28:50.863Z,4.60
2023-02-17T01:31:20.356Z,4.50
2023-02-17T01:33:48.714Z,4.30
2023-02-17T01:36:19.329Z,4.50
2023-02-17T01:38:48.383Z,3.72
2023-02-17T01:41:23.861Z,4.10
2023-02-17T01:44:08.194Z,4.35
2023-02-17T01:46:40.296Z,4.68
2023-02-17T01:49:27.011Z,4.53
2023-02-17T01:52:02.422Z,4.43
2023-02-17T01:54:37.209Z,4.55
2023-02-17T01:57:07.075Z,4.22
2023-02-17T01:59:35.329Z,4.00
2023-02-17T02:02:06.416Z,4.53
2023-02-17T02:04:38.845Z,4.13
2023-02-17T02:07:11.520Z,4.85
2023-02-17T02:09:43.325Z,4.40
2023-02-17T02:12:22.728Z,4.35
2023-02-17T02:14:52.366Z,4.70
2023-02-17T02:17:30.698Z,4.32
2023-02-17T02:20:34.306Z,4.07
2023-02-17T02:23:23.732Z,4.13
2023-02-17T02:26:26.007Z,4.93
2023-02-17T02:29:25.421Z,4.40
2023-02-17T02:32:05.429Z,4.43
2023-02-17T02:34:39.637Z,4.78
2023-02-17T02:37:14.753Z,4.03
2023-02-17T02:39:47.970Z,3.88
2023-02-17T02:42:19.981Z,4.47
2023-02-17T02:44:48.966Z,4.32
2023-02-17T02:47:46.032Z,4.03
2023-02-17T02:50:23.652Z,3.90
2023-02-17T02:53:10.020Z,3.92
2023-02-17T02:55:49.984Z,4.07
2023-02-17T02:58:21.980Z,4.55
2023-02-17T03:00:57.978Z,4.68
2023-02-17T03:03:33.435Z,4.43
2023-02-17T03:06:16.203Z,3.92
2023-02-17T03:08:49.882Z,4.38
2023-02-17T03:11:32.276Z,4.50
2023-02-17T03:14:03.658Z,4.20
2023-02-17T03:16:33.801Z,3.83
2023-02-17T03:19:02.066Z,4.38
2023-02-17T03:21:37.218Z,4.75
2023-02-17T03:24:06.979Z,4.30
2023-02-17T03:26:35.373Z,3.63
2023-02-17T03:29:03.679Z,4.25
2023-02-17T03:31:32.563Z,3.97
2023-02-17T03:34:01.147Z,3.90
2023-02-17T03:36:30.026Z,3.90
2023-02-17T03:39:21.454Z,3.80
2023-02-17T03:41:51.637Z,3.65
2023-02-17T03:44:20.196Z,3.95
2023-02-17T03:46:48.492Z,3.83
2023-02-17T03:49:16.694Z,3.78
2023-02-17T03:51:45.004Z,3.25
2023-02-17T03:54:13.290Z,4.00
2023-02-17T03:56:42.940Z,3.63
2023-02-17T03:59:11.141Z,3.90
2023-02-17T04:01:40.946Z,3.70
2023-02-17T04:04:09.150Z,3.55
2023-02-17T04:06:37.488Z,3.70
2023-02-17T04:09:05.808Z,3.50
2023-02-17T04:11:34.075Z,3.80
2023-02-17T04:14:03.750Z,3.42
2023-02-17T04:16:31.930Z,3.38
2023-02-17T04:19:00.128Z,3.75
2023-02-17T04:21:28.309Z,3.40
2023-02-17T04:23:56.558Z,3.33
2023-02-17T04:26:24.853Z,3.28
2023-02-17T04:28:53.015Z,2.88
2023-02-17T04:31:22.802Z,3.80
2023-02-17T04:33:51.099Z,3.53
2023-02-17T04:36:19.884Z,3.42
2023-02-17T04:38:48.108Z,3.00
2023-02-17T04:41:16.482Z,3.17
2023-02-17T04:43:44.660Z,3.45
2023-02-17T04:46:12.968Z,3.15
2023-02-17T04:48:42.593Z,3.55
2023-02-17T04:51:10.867Z,2.95
2023-02-17T04:53:39.106Z,2.90
2023-02-17T04:56:08.245Z,3.13
2023-02-17T04:58:36.527Z,3.25
2023-02-17T05:01:05.076Z,3.00
2023-02-17T05:03:33.316Z,2.95
2023-02-17T05:06:03.059Z,3.28
2023-02-17T05:08:31.536Z,3.10
2023-02-17T05:10:59.773Z,3.40
2023-02-17T05:13:28.610Z,3.45
2023-02-17T05:15:56.913Z,3.03
2023-02-17T05:18:25.204Z,3.05
2023-02-17T05:20:53.461Z,2.92
2023-02-17T05:23:23.199Z,3.42
2023-02-17T05:25:51.428Z,2.90
2023-02-17T05:28:19.638Z,3.03
2023-02-17T05:30:50.269Z,3.08
2023-02-17T05:33:18.754Z,2.70
2023-02-17T05:35:46.911Z,3.42
2023-02-17T05:38:15.123Z,2.92
2023-02-17T05:40:44.838Z,2.83
2023-02-17T05:43:13.116Z,3.03
2023-02-17T05:45:41.299Z,3.00
2023-02-17T05:48:09.541Z,3.00
2023-02-17T05:50:37.710Z,2.95
2023-02-17T05:53:05.971Z,2.88
2023-02-17T05:55:34.194Z,2.65
2023-02-17T05:58:03.968Z,2.65
2023-02-17T06:00:32.573Z,2.78
2023-02-17T06:03:00.858Z,2.83
2023-02-17T06:05:29.174Z,2.75
2023-02-17T06:07:57.511Z,2.80
2023-02-17T06:10:25.725Z,2.42
2023-02-17T06:12:53.909Z,2.58
2023-02-17T06:15:23.778Z,2.63
2023-02-17T06:17:52.067Z,2.45
2023-02-17T06:20:20.444Z,2.78
2023-02-17T06:22:48.754Z,2.80
2023-02-17T06:25:17.604Z,2.40
2023-02-17T06:27:45.835Z,3.17
2023-02-17T06:30:15.504Z,2.85
2023-02-17T06:32:45.189Z,2.83
2023-02-17T06:35:13.422Z,2.80
2023-02-17T06:37:41.724Z,2.75
2023-02-17T06:40:11.273Z,2.42
2023-02-17T06:42:39.532Z,3.15
2023-02-17T06:45:08.667Z,2.65
2023-02-17T06:47:37.474Z,3.47
2023-02-17T06:50:08.773Z,3.08
2023-02-17T06:52:37.255Z,3.38
2023-02-17T06:55:06.065Z,2.95
2023-02-17T06:57:34.317Z,2.50
2023-02-17T07:00:02.593Z,3.38
2023-02-17T07:02:31.383Z,2.53
2023-02-17T07:04:59.657Z,2.72
2023-02-17T07:07:29.499Z,2.92
2023-02-17T07:09:57.742Z,2.63
2023-02-17T07:12:26.003Z,2.67
2023-02-17T07:14:54.284Z,2.30
2023-02-17T07:17:22.581Z,2.30
2023-02-17T07:19:50.816Z,2.50
2023-02-17T07:22:19.215Z,2.40
2023-02-17T07:24:48.797Z,2.35
2023-02-17T07:27:17.040Z,2.30
2023-02-17T07:29:45.322Z,2.95
2023-02-17T07:32:13.479Z,2.13
2023-02-17T07:34:41.688Z,2.17
2023-02-17T07:37:10.003Z,2.60
2023-02-17T07:39:38.287Z,2.50
2023-02-17T07:42:08.161Z,2.20
2023-02-17T07:44:36.586Z,2.80
2023-02-17T07:47:04.825Z,2.28
2023-02-17T07:49:33.270Z,2.45
2023-02-17T07:52:02.986Z,3.00
2023-02-17T07:54:33.165Z,2.75
2023-02-17T07:57:01.681Z,2.50
2023-02-17T08:00:22.728Z,2.72
2023-02-17T08:02:52.481Z,2.70
2023-02-17T08:05:20.674Z,3.60
2023-02-17T08:08:08.919Z,3.03
2023-02-17T08:10:56.535Z,2.75
2023-02-17T08:13:25.349Z,3.47
2023-02-17T08:15:53.600Z,2.53
2023-02-17T08:18:23.171Z,3.22
2023-02-17T08:20:51.530Z,3.60
2023-02-17T08:23:21.457Z,2.42
2023-02-17T08:25:49.787Z,2.78
2023-02-17T08:28:18.101Z,2.70
2023-02-17T08:30:46.491Z,2.70
2023-02-17T08:33:17.956Z,2.63
2023-02-17T08:35:47.651Z,2.78
2023-02-17T08:38:17.029Z,2.85
2023-02-17T08:40:45.292Z,2.60
2023-02-17T08:43:13.699Z,2.60
2023-02-17T08:45:41.921Z,2.80
2023-02-17T08:48:10.206Z,2.83
2023-02-17T08:50:38.542Z,2.50
2023-02-17T08:53:08.060Z,2.70
2023-02-17T08:55:48.682Z,2.33
2023-02-17T08:58:17.746Z,2.30
2023-02-17T09:00:46.202Z,2.38
2023-02-17T09:03:14.751Z,2.38
2023-02-17T09:05:42.957Z,1.98
2023-02-17T09:08:12.730Z,2.17
2023-02-17T09:10:41.295Z,2.72
2023-02-17T09:13:09.587Z,2.40
2023-02-17T09:15:37.896Z,2.55
2023-02-17T09:18:06.610Z,2.70
2023-02-17T09:20:34.777Z,2.42
2023-02-17T09:23:03.075Z,2.63
2023-02-17T09:25:32.694Z,2.17
2023-02-17T09:28:00.944Z,2.80
2023-02-17T09:30:29.258Z,2.58
2023-02-17T09:32:57.748Z,2.35
2023-02-17T09:35:26.751Z,3.00
2023-02-17T09:37:55.624Z,2.42
2023-02-17T09:40:26.967Z,2.70
2023-02-17T09:42:56.660Z,2.70
2023-02-17T09:45:29.979Z,2.80
2023-02-17T09:48:02.322Z,2.83
2023-02-17T09:50:40.413Z,2.65
2023-02-17T09:53:14.941Z,2.30
2023-02-17T09:55:49.131Z,2.63
2023-02-17T09:58:23.166Z,2.55
2023-02-17T10:00:55.729Z,2.50
2023-02-17T10:03:31.174Z,2.85
2023-02-17T10:06:12.592Z,2.65
2023-02-17T10:08:47.088Z,2.63
2023-02-17T10:11:23.241Z,2.63
2023-02-17T10:13:54.252Z,2.50
2023-02-17T10:16:30.836Z,2.83
2023-02-17T10:19:03.762Z,2.88
2023-02-17T10:21:37.998Z,3.13
2023-02-17T10:24:06.838Z,2.60
2023-02-17T10:26:54.343Z,3.35
2023-02-17T10:29:37.192Z,2.90
2023-02-17T10:32:22.259Z,2.70
2023-02-17T10:35:05.111Z,2.85
2023-02-17T10:37:43.752Z,2.80
2023-02-17T10:40:16.487Z,2.80
2023-02-17T10:42:44.820Z,2.70
2023-02-17T10:45:25.712Z,2.67
2023-02-17T10:47:59.086Z,2.90
2023-02-17T10:50:27.836Z,3.40
2023-02-17T10:52:57.367Z,3.30
2023-02-17T10:55:33.905Z,2.72
2023-02-17T10:58:07.703Z,3.92
2023-02-17T11:00:37.572Z,3.05
2023-02-17T11:03:06.008Z,2.70
2023-02-17T11:05:35.886Z,2.58
2023-02-17T11:08:06.957Z,2.78
2023-02-17T11:10:37.385Z,2.50
2023-02-17T11:13:20.448Z,2.80
2023-02-17T11:15:50.484Z,2.88
2023-02-17T11:18:22.949Z,2.65
2023-02-17T11:20:51.310Z,2.33
2023-02-17T11:23:25.295Z,2.30
2023-02-17T11:25:59.965Z,2.38
2023-02-17T11:28:28.769Z,2.60
2023-02-17T11:31:02.575Z,2.22
2023-02-17T11:33:34.308Z,2.22
2023-02-17T11:38:42.053Z,1.90
2023-02-17T11:41:11.212Z,2.17
2023-02-17T11:43:40.776Z,1.88
2023-02-17T11:46:23.578Z,2.30
2023-02-17T11:49:31.014Z,2.15
2023-02-17T11:52:09.756Z,1.88
2023-02-17T11:54:47.665Z,2.08
2023-02-17T11:57:32.650Z,1.75
2023-02-17T12:00:15.694Z,2.03
2023-02-17T12:03:07.623Z,1.83
2023-02-17T12:05:49.969Z,2.00
2023-02-17T12:08:27.649Z,1.80
2023-02-17T12:11:08.873Z,2.20
2023-02-17T12:13:48.422Z,1.95
2023-02-17T12:16:27.787Z,2.47
2023-02-17T12:19:05.343Z,2.00
2023-02-17T12:21:53.664Z,2.00
2023-02-17T12:24:47.662Z,2.25
2023-02-17T12:27:29.346Z,2.08
2023-02-17T12:30:11.882Z,2.38
2023-02-17T12:32:59.495Z,1.95
2023-02-17T12:35:35.682Z,1.85
2023-02-17T12:38:16.449Z,2.17
2023-02-17T12:40:48.865Z,2.40
2023-02-17T12:43:27.031Z,1.88
2023-02-17T12:45:59.204Z,2.15
2023-02-17T12:48:35.185Z,1.88
2023-02-17T12:51:11.327Z,1.85
2023-02-17T12:53:44.518Z,1.88
2023-02-17T12:56:40.944Z,2.20
2023-02-17T12:59:21.209Z,1.80
2023-02-17T13:01:55.324Z,2.75
2023-02-17T13:04:26.595Z,1.92
2023-02-17T13:07:05.272Z,2.00
2023-02-17T13:09:37.331Z,1.70
2023-02-17T13:12:19.014Z,2.45
2023-02-17T13:14:49.155Z,2.53
2023-02-17T13:17:25.870Z,2.13
2023-02-17T13:20:28.987Z,2.15
2023-02-17T13:23:12.252Z,2.10
2023-02-17T13:25:40.704Z,1.90
2023-02-17T13:28:35.856Z,1.90
2023-02-17T13:31:17.600Z,1.92
2023-02-17T13:33:51.133Z,2.47
2023-02-17T13:36:23.328Z,2.50
2023-02-17T13:39:02.109Z,2.13
2023-02-17T13:41:35.532Z,1.98
2023-02-17T13:44:27.621Z,2.00
2023-02-17T13:47:00.099Z,1.80
2023-02-17T13:49:33.215Z,1.95
2023-02-17T13:52:13.192Z,1.83
2023-02-17T13:54:52.558Z,2.20
2023-02-17T13:57:28.933Z,1.88
2023-02-17T14:00:11.737Z,2.10
2023-02-17T14:02:46.773Z,2.00
2023-02-17T14:05:20.350Z,2.70
2023-02-17T14:07:49.564Z,106.03
2023-02-17T14:10:23.392Z,147.27
2023-02-17T14:12:53.294Z,121.47
2023-02-17T14:15:24.790Z,99.20
2023-02-17T14:17:53.102Z,91.60
2023-02-17T14:20:35.849Z,61.00
2023-02-17T14:23:06.655Z,54.75
2023-02-17T14:25:38.478Z,49.67
2023-02-17T14:28:20.025Z,46.05
2023-02-17T14:30:48.521Z,34.08
2023-02-17T14:33:22.962Z,17.23
2023-02-17T14:35:53.988Z,70.85
2023-02-17T14:38:24.370Z,62.72
2023-02-17T14:40:55.798Z,65.43
2023-02-17T14:43:24.234Z,67.70
2023-02-17T14:45:52.694Z,137.02
2023-02-17T14:48:21.099Z,90.70
2023-02-17T14:50:49.721Z,74.07
2023-02-17T14:53:24.216Z,56.72
2023-02-17T14:55:59.343Z,47.70
2023-02-17T14:58:29.131Z,32.20
2023-02-17T15:00:57.430Z,27.60
2023-02-17T15:03:25.926Z,21.10
2023-02-17T15:05:55.435Z,17.83
2023-02-17T15:08:28.299Z,16.60
2023-02-17T15:10:58.134Z,10.73
2023-02-17T15:13:26.494Z,11.93
2023-02-17T15:15:54.858Z,10.98
2023-02-17T15:18:23.116Z,7.53
2023-02-17T15:20:53.960Z,7.43
2023-02-17T15:23:25.577Z,5.95
2023-02-17T15:28:24.560Z,5.30
2023-02-17T15:30:55.498Z,4.72
2023-02-17T15:33:24.910Z,4.28
2023-02-17T15:35:54.815Z,4.20
2023-02-17T15:38:24.365Z,3.78
2023-02-17T15:40:56.683Z,2.92
2023-02-17T15:46:14.473Z,2.65
2023-02-17T15:48:43.457Z,2.67
2023-02-17T15:51:14.965Z,2.28
2023-02-17T15:53:43.677Z,2.20
2023-02-17T15:56:14.769Z,2.20
2023-02-17T15:58:45.202Z,2.47
2023-02-17T16:01:21.762Z,2.25
2023-02-17T16:03:49.941Z,1.92
2023-02-17T16:06:18.105Z,2.13
2023-02-17T16:08:46.508Z,2.15
2023-02-17T16:11:15.680Z,2.03
2023-02-17T16:13:47.518Z,1.70
2023-02-17T16:16:18.777Z,2.30
2023-02-17T16:18:47.722Z,2.30
2023-02-17T16:21:16.592Z,2.42
2023-02-17T16:23:45.151Z,2.00
2023-02-17T16:26:21.489Z,1.67
2023-02-17T16:28:51.236Z,2.00
2023-02-17T16:31:19.666Z,1.80
2023-02-17T16:33:47.934Z,2.05
2023-02-17T16:36:18.549Z,1.88
2023-02-17T16:38:50.453Z,1.90
2023-02-17T16:41:20.798Z,2.03
2023-02-17T16:43:50.374Z,2.00
2023-02-17T16:46:23.621Z,1.30
2023-02-17T16:48:52.010Z,1.60
2023-02-17T16:51:20.168Z,1.90
2023-02-17T16:53:48.396Z,1.85
2023-02-17T16:56:20.824Z,1.40
2023-02-17T16:58:50.467Z,1.80
2023-02-17T17:01:18.768Z,1.10
2023-02-17T17:03:47.055Z,1.50
2023-02-17T17:06:21.454Z,1.40
2023-02-17T17:08:49.825Z,1.70
2023-02-17T17:11:22.865Z,1.55
2023-02-17T17:13:53.652Z,1.33
2023-02-17T17:16:24.165Z,1.65
2023-02-17T17:18:52.518Z,1.30
2023-02-17T17:21:22.014Z,1.38
2023-02-17T17:23:50.838Z,1.50
2023-02-17T17:26:26.109Z,1.50
2023-02-17T17:28:55.916Z,1.55
2023-02-17T17:31:25.049Z,1.63
2023-02-17T17:33:54.798Z,1.65
2023-02-17T17:36:26.941Z,1.63
2023-02-17T17:38:56.165Z,1.50
2023-02-17T17:41:25.319Z,1.88
2023-02-17T17:43:55.525Z,1.65
2023-02-17T17:46:26.017Z,2.10
2023-02-17T17:48:54.514Z,2.15
2023-02-17T17:51:24.076Z,1.80
2023-02-17T17:53:52.547Z,2.20
2023-02-17T17:56:23.336Z,2.00
2023-02-17T17:58:52.012Z,1.83
2023-02-17T18:01:22.510Z,1.80
2023-02-17T18:03:51.009Z,1.60
2023-02-17T18:06:23.929Z,1.27
2023-02-17T18:08:54.458Z,1.33
2023-02-17T18:11:25.049Z,1.38
2023-02-17T18:13:56.327Z,1.35
2023-02-17T18:16:29.926Z,1.25
2023-02-17T18:19:00.966Z,1.40
2023-02-17T18:21:29.334Z,1.65
2023-02-17T18:23:57.497Z,1.23
2023-02-17T18:26:25.781Z,1.50
2023-02-17T18:28:54.030Z,1.40
2023-02-17T18:31:22.359Z,1.40
2023-02-17T18:33:52.086Z,1.65
2023-02-17T18:36:22.753Z,1.30
2023-02-17T18:38:51.222Z,1.30
2023-02-17T18:41:20.820Z,1.85
2023-02-17T18:43:49.416Z,58.90
2023-02-17T18:46:18.566Z,70.32
2023-02-17T18:48:47.404Z,60.45
2023-02-17T18:51:19.304Z,85.95
2023-02-17T18:53:49.023Z,119.57
2023-02-17T18:56:21.572Z,69.13
2023-02-17T18:58:48.615Z,77.20
2023-02-17T19:01:17.632Z,91.53
2023-02-17T19:03:46.261Z,73.97
2023-02-17T19:06:17.967Z,84.18
2023-02-17T19:08:47.688Z,76.28
2023-02-17T19:11:17.159Z,44.55
2023-02-17T19:13:45.540Z,41.17
2023-02-17T19:16:15.816Z,27.77
2023-02-17T19:18:45.892Z,15.15
2023-02-17T19:21:15.148Z,12.57
2023-02-17T19:23:44.799Z,51.47
2023-02-17T19:26:15.997Z,49.53
2023-02-17T19:28:45.255Z,67.35
2023-02-17T19:31:15.510Z,56.47
2023-02-17T19:33:45.676Z,105.88
2023-02-17T19:36:15.909Z,71.55
2023-02-17T19:38:45.857Z,100.35
2023-02-17T19:41:14.974Z,73.20
2023-02-17T19:43:44.196Z,44.60
2023-02-17T19:46:13.627Z,28.63
2023-02-17T19:48:42.325Z,19.52
2023-02-17T19:51:12.468Z,15.43
2023-02-17T19:53:40.951Z,15.48
2023-02-17T19:56:13.021Z,15.43
2023-02-17T19:58:42.507Z,12.43
2023-02-17T20:01:12.250Z,10.30
2023-02-17T20:03:40.896Z,8.38
2023-02-17T20:06:12.386Z,7.05
2023-02-17T20:08:40.789Z,6.05
2023-02-17T20:11:12.038Z,5.43
2023-02-17T20:13:46.167Z,5.40
2023-02-17T20:16:16.510Z,3.78
2023-02-17T20:18:46.708Z,3.35
2023-02-17T20:21:16.828Z,3.30
2023-02-17T20:23:45.194Z,2.60
2023-02-17T20:26:18.166Z,2.03
2023-02-17T20:28:46.515Z,2.15
2023-02-17T20:31:15.518Z,2.15
2023-02-17T20:33:44.222Z,2.00
2023-02-17T20:36:12.939Z,1.50
2023-02-17T20:38:41.778Z,1.92
2023-02-17T20:41:11.288Z,1.40
2023-02-17T20:43:41.061Z,1.50
2023-02-17T20:46:13.682Z,1.42
2023-02-17T20:48:41.969Z,1.42
2023-02-17T20:51:10.117Z,1.58
2023-02-17T20:53:38.332Z,1.50
2023-02-17T20:56:13.289Z,1.63
2023-02-17T20:58:43.147Z,1.70
2023-02-17T21:01:11.813Z,1.23
2023-02-17T21:03:40.080Z,1.58
2023-02-17T21:06:20.372Z,1.60
2023-02-17T21:08:52.078Z,1.67
2023-02-17T21:11:20.529Z,1.50
2023-02-17T21:13:50.499Z,1.83
2023-02-17T21:16:21.079Z,1.60
2023-02-17T21:18:49.444Z,1.50
2023-02-17T21:21:17.788Z,1.70
2023-02-17T21:23:47.890Z,1.85
2023-02-17T21:26:16.723Z,1.70
2023-02-17T21:28:45.365Z,1.75
2023-02-17T21:31:16.020Z,1.77
2023-02-17T21:33:44.779Z,1.98
2023-02-17T21:36:15.487Z,1.80
2023-02-17T21:38:43.746Z,2.00
2023-02-17T21:41:14.134Z,1.85
2023-02-17T21:44:00.727Z,1.80
2023-02-17T21:46:30.920Z,1.85
2023-02-17T21:49:01.292Z,1.75
2023-02-17T21:51:29.686Z,2.00
2023-02-17T21:53:59.279Z,2.22
2023-02-17T21:56:27.790Z,2.17
2023-02-17T21:58:56.582Z,2.45
2023-02-17T22:01:27.657Z,2.33
2023-02-17T22:03:57.782Z,1.83
2023-02-17T22:06:28.206Z,2.13
2023-02-17T22:08:57.475Z,2.10
2023-02-17T22:11:27.170Z,2.05
2023-02-17T22:13:56.161Z,2.10
2023-02-17T22:16:24.911Z,2.42
2023-02-17T22:18:53.497Z,2.13
2023-02-17T22:21:23.136Z,2.40
2023-02-17T22:23:51.543Z,2.03
2023-02-17T22:26:23.048Z,2.50
2023-02-17T22:28:51.923Z,2.08
2023-02-17T22:31:21.936Z,2.05
2023-02-17T22:33:50.408Z,1.77
2023-02-17T22:36:22.159Z,2.20
2023-02-17T22:38:52.468Z,2.50
2023-02-17T22:41:23.320Z,2.30
2023-02-17T22:43:52.707Z,2.00
2023-02-17T22:46:22.192Z,2.10
2023-02-17T22:48:52.151Z,2.50
2023-02-17T22:51:22.476Z,2.30
2023-02-17T22:53:52.345Z,2.40
2023-02-17T22:56:20.867Z,2.35
2023-02-17T22:58:53.825Z,2.17
2023-02-17T23:01:22.528Z,2.40
2023-02-17T23:03:53.912Z,2.38
2023-02-17T23:06:25.024Z,2.38
2023-02-17T23:08:55.658Z,2.10
2023-02-17T23:11:39.982Z,2.20
2023-02-17T23:14:08.507Z,2.15
2023-02-17T23:16:36.975Z,2.10
2023-02-17T23:19:08.445Z,2.40
2023-02-17T23:21:37.280Z,2.25
2023-02-17T23:24:07.650Z,2.75
2023-02-17T23:26:35.932Z,2.08
2023-02-17T23:29:04.480Z,2.33
2023-02-17T23:31:32.824Z,2.30
2023-02-17T23:34:01.124Z,2.25
2023-02-17T23:36:29.537Z,2.00
2023-02-17T23:38:59.585Z,1.92
2023-02-17T23:41:29.494Z,2.38
2023-02-17T23:43:57.859Z,2.17
2023-02-17T23:46:26.212Z,2.10
2023-02-17T23:48:54.662Z,2.10
2023-02-17T23:51:23.378Z,1.98
2023-02-17T23:53:51.738Z,2.60
2023-02-17T23:56:23.385Z,2.10
